Terminal Aerodrome Forecast
Issued by NWS

Home | Current Version | Previous Version | Text Only | Print | Product List | Glossary On
Versions: 1 2 3 4 5 6 7 8 9 10 11 12 13 14 15 16 17 18 19
000
FTUS46 KLOX 242300 RRA
TAFOXR
TAF
KOXR 242340Z 2500/2524 27010KT P6SM OVC050
     FM250300 26006KT P6SM BKN045
     FM250600 VRB03KT P6SM SCT250
     FM251000 VRB03KT P6SM BKN025
     FM251800 27013KT P6SM SCT025 OVC035
     FM252100 27018G25KT P6SM BKN025 OVC040=

USA.gov is the U.S. government's official web portal to all federal, state and local government web resources and services.